Time,TemperatureF,DewpointF,PressureIn,WindDirection,WindDirectionDegrees,WindSpeedMPH,WindSpeedGustMPH,Humidity,HourlyPrecipIn,Conditions,Clouds,dailyrainin,SoftwareType,DateUTC
2013-04-23 00:00:00,57.6,37.0,30.18,NNE,22,0.0,5.0,46,0.00,,SKC,0.00,VWS V14.00,2013-04-23 04:00:00,
2013-04-23 00:01:00,56.3,36.9,30.18,North,360,0.0,2.0,48,0.00,,SKC,0.00,VWS V14.00,2013-04-23 04:01:00,
2013-04-23 00:06:00,56.3,36.9,30.18,North,360,0.0,3.0,48,0.00,,SKC,0.00,VWS V14.00,2013-04-23 04:06:00,
2013-04-23 00:10:00,57.2,37.2,30.18,North,360,3.0,4.0,47,0.00,,SKC,0.00,VWS V14.00,2013-04-23 04:10:00,
2013-04-23 00:11:00,56.1,36.7,30.18,North,360,0.0,4.0,48,0.00,,SKC,0.00,VWS V14.00,2013-04-23 04:11:00,
2013-04-23 00:16:00,56.0,36.1,30.18,NNE,24,0.0,5.0,47,0.00,,SKC,0.00,VWS V14.00,2013-04-23 04:16:00,
2013-04-23 00:20:00,56.7,36.7,30.18,North,360,2.0,3.0,47,0.00,,SKC,0.00,VWS V14.00,2013-04-23 04:20:00,
2013-04-23 00:21:00,56.0,36.6,30.18,North,360,0.0,4.0,48,0.00,,SKC,0.00,VWS V14.00,2013-04-23 04:21:00,
2013-04-23 00:26:00,55.8,35.9,30.19,North,360,0.0,4.0,47,0.00,,SKC,0.00,VWS V14.00,2013-04-23 04:26:00,
2013-04-23 00:30:00,56.4,37.0,30.19,North,360,0.0,4.0,48,0.00,,SKC,0.00,VWS V14.00,2013-04-23 04:30:00,
2013-04-23 00:31:00,55.8,35.9,30.19,NNE,19,0.0,3.0,47,0.00,,SKC,0.00,VWS V14.00,2013-04-23 04:31:00,
2013-04-23 00:36:00,55.8,34.2,30.19,North,360,3.0,4.0,44,0.00,,SKC,0.00,VWS V14.00,2013-04-23 04:36:00,
2013-04-23 00:40:00,56.3,36.9,30.19,North,360,2.0,6.0,48,0.00,,SKC,0.00,VWS V14.00,2013-04-23 04:40:00,
2013-04-23 00:41:00,55.8,35.3,30.19,North,360,0.0,7.0,46,0.00,,SKC,0.00,VWS V14.00,2013-04-23 04:41:00,
2013-04-23 00:46:00,55.8,35.3,30.19,North,360,5.0,7.0,46,0.00,,SKC,0.00,VWS V14.00,2013-04-23 04:46:00,
2013-04-23 00:50:00,56.3,36.9,30.18,NNE,22,0.0,2.0,48,0.00,,SKC,0.00,VWS V14.00,2013-04-23 04:50:00,
2013-04-23 00:51:00,55.8,34.8,30.19,North,360,0.0,7.0,45,0.00,,SKC,0.00,VWS V14.00,2013-04-23 04:51:00,
2013-04-23 00:56:00,55.8,34.8,30.19,North,360,3.0,7.0,45,0.00,,SKC,0.00,VWS V14.00,2013-04-23 04:56:00,
2013-04-23 01:00:00,56.1,36.7,30.18,NNE,17,2.0,3.0,48,0.00,,SKC,0.00,VWS V14.00,2013-04-23 05:00:00,
2013-04-23 01:01:00,55.8,34.8,30.19,NNE,21,2.0,7.0,45,0.00,,SKC,0.00,VWS V14.00,2013-04-23 05:01:00,
2013-04-23 01:06:00,55.7,34.1,30.19,NNE,21,0.0,7.0,44,0.00,,SKC,0.00,VWS V14.00,2013-04-23 05:06:00,
2013-04-23 01:10:00,56.0,36.6,30.18,NNE,24,0.0,5.0,48,0.00,,SKC,0.00,VWS V14.00,2013-04-23 05:10:00,
2013-04-23 01:11:00,55.7,34.1,30.19,NNE,19,7.0,7.0,44,0.00,,SKC,0.00,VWS V14.00,2013-04-23 05:11:00,
2013-04-23 01:16:00,55.7,34.1,30.19,NNE,19,7.0,7.0,44,0.00,,SKC,0.00,VWS V14.00,2013-04-23 05:16:00,
2013-04-23 01:20:00,55.8,35.9,30.19,North,360,0.0,4.0,47,0.00,,SKC,0.00,VWS V14.00,2013-04-23 05:20:00,
2013-04-23 01:21:00,55.7,33.6,30.19,North,360,0.0,10.0,43,0.00,,SKC,0.00,VWS V14.00,2013-04-23 05:21:00,
2013-04-23 01:26:00,55.7,33.6,30.19,NNE,22,0.0,10.0,43,0.00,,SKC,0.00,VWS V14.00,2013-04-23 05:26:00,
2013-04-23 01:30:00,55.8,34.2,30.19,North,360,3.0,4.0,44,0.00,,SKC,0.00,VWS V14.00,2013-04-23 05:30:00,
2013-04-23 01:31:00,55.6,33.5,30.19,NNE,19,5.0,9.0,43,0.00,,SKC,0.00,VWS V14.00,2013-04-23 05:31:00,
2013-04-23 01:36:00,55.6,33.5,30.19,North,360,0.0,9.0,43,0.00,,SKC,0.00,VWS V14.00,2013-04-23 05:36:00,
2013-04-23 01:40:00,55.8,35.3,30.19,North,360,2.0,7.0,46,0.00,,SKC,0.00,VWS V14.00,2013-04-23 05:40:00,
2013-04-23 01:41:00,55.4,33.3,30.19,NNE,19,0.0,7.0,43,0.00,,SKC,0.00,VWS V14.00,2013-04-23 05:41:00,
2013-04-23 01:46:00,55.3,33.2,30.19,North,360,3.0,9.0,43,0.00,,SKC,0.00,VWS V14.00,2013-04-23 05:46:00,
2013-04-23 01:50:00,55.8,34.8,30.19,NNE,21,7.0,7.0,45,0.00,,SKC,0.00,VWS V14.00,2013-04-23 05:50:00,
2013-04-23 01:51:00,55.1,33.0,30.19,NNE,19,0.0,6.0,43,0.00,,SKC,0.00,VWS V14.00,2013-04-23 05:51:00,
2013-04-23 01:56:00,55.0,32.9,30.18,NNE,22,0.0,9.0,43,0.00,,SKC,0.00,VWS V14.00,2013-04-23 05:56:00,
2013-04-23 02:00:00,55.7,34.1,30.19,North,360,7.0,7.0,44,0.00,,SKC,0.00,VWS V14.00,2013-04-23 06:00:00,
2013-04-23 02:01:00,54.8,33.3,30.18,NNE,22,3.0,5.0,44,0.00,,SKC,0.00,VWS V14.00,2013-04-23 06:01:00,
2013-04-23 02:06:00,54.7,33.2,30.18,NNE,22,2.0,5.0,44,0.00,,SKC,0.00,VWS V14.00,2013-04-23 06:06:00,
2013-04-23 02:10:00,55.7,33.6,30.19,North,360,1.0,9.0,43,0.00,,SKC,0.00,VWS V14.00,2013-04-23 06:10:00,
2013-04-23 02:11:00,54.7,33.2,30.18,North,360,0.0,1.0,44,0.00,,SKC,0.00,VWS V14.00,2013-04-23 06:11:00,
2013-04-23 02:16:00,54.4,33.0,30.18,North,360,2.0,7.0,44,0.00,,SKC,0.00,VWS V14.00,2013-04-23 06:16:00,
2013-04-23 02:20:00,55.7,33.6,30.19,North,360,3.0,10.0,43,0.00,,SKC,0.00,VWS V14.00,2013-04-23 06:20:00,
2013-04-23 02:21:00,54.2,33.3,30.18,North,360,0.0,5.0,45,0.00,,SKC,0.00,VWS V14.00,2013-04-23 06:21:00,
2013-04-23 02:26:00,54.1,33.2,30.18,North,360,0.0,5.0,45,0.00,,SKC,0.00,VWS V14.00,2013-04-23 06:26:00,
2013-04-23 02:30:00,55.4,33.3,30.19,NNE,19,1.0,9.0,43,0.00,,SKC,0.00,VWS V14.00,2013-04-23 06:30:00,
2013-04-23 02:31:00,53.9,33.1,30.18,NNE,19,0.0,2.0,45,0.00,,SKC,0.00,VWS V14.00,2013-04-23 06:31:00,
2013-04-23 02:36:00,53.8,33.0,30.18,NNE,18,3.0,3.0,45,0.00,,SKC,0.00,VWS V14.00,2013-04-23 06:36:00,
2013-04-23 02:40:00,55.1,33.0,30.19,North,360,4.0,9.0,43,0.00,,SKC,0.00,VWS V14.00,2013-04-23 06:40:00,
2013-04-23 02:41:00,53.8,33.0,30.18,NNE,20,0.0,4.0,45,0.00,,SKC,0.00,VWS V14.00,2013-04-23 06:41:00,
2013-04-23 02:46:00,53.6,32.8,30.18,NNE,19,2.0,4.0,45,0.00,,SKC,0.00,VWS V14.00,2013-04-23 06:46:00,
2013-04-23 02:50:00,55.0,32.9,30.18,NNE,19,3.0,9.0,43,0.00,,SKC,0.00,VWS V14.00,2013-04-23 06:50:00,
2013-04-23 02:51:00,53.6,32.8,30.18,NNE,18,1.0,4.0,45,0.00,,SKC,0.00,VWS V14.00,2013-04-23 06:51:00,
2013-04-23 02:56:00,53.6,32.2,30.18,NNE,18,0.0,5.0,44,0.00,,SKC,0.00,VWS V14.00,2013-04-23 06:56:00,
2013-04-23 03:00:00,54.7,33.2,30.18,NNE,18,0.0,9.0,44,0.00,,SKC,0.00,VWS V14.00,2013-04-23 07:00:00,
2013-04-23 03:01:00,53.6,32.2,30.18,North,360,0.0,5.0,44,0.00,,SKC,0.00,VWS V14.00,2013-04-23 07:01:00,
2013-04-23 03:06:00,53.6,32.2,30.18,North,360,0.0,5.0,44,0.00,,SKC,0.00,VWS V14.00,2013-04-23 07:06:00,
2013-04-23 03:10:00,54.4,33.0,30.18,North,360,5.0,7.0,44,0.00,,SKC,0.00,VWS V14.00,2013-04-23 07:10:00,
2013-04-23 03:11:00,53.6,32.2,30.17,North,360,0.0,6.0,44,0.00,,SKC,0.00,VWS V14.00,2013-04-23 07:11:00,
2013-04-23 03:16:00,53.5,31.6,30.17,NNE,16,0.0,6.0,43,0.00,,SKC,0.00,VWS V14.00,2013-04-23 07:16:00,
2013-04-23 03:20:00,54.1,33.2,30.18,North,360,0.0,5.0,45,0.00,,SKC,0.00,VWS V14.00,2013-04-23 07:20:00,
2013-04-23 03:21:00,53.5,31.6,30.17,North,360,0.0,1.0,43,0.00,,SKC,0.00,VWS V14.00,2013-04-23 07:21:00,
2013-04-23 03:26:00,53.5,31.6,30.15,NNE,19,0.0,5.0,43,0.00,,SKC,0.00,VWS V14.00,2013-04-23 07:26:00,
2013-04-23 03:30:00,53.8,33.0,30.18,NNE,18,3.0,4.0,45,0.00,,SKC,0.00,VWS V14.00,2013-04-23 07:30:00,
2013-04-23 03:31:00,53.3,31.4,30.15,North,360,0.0,0.0,43,0.00,,SKC,0.00,VWS V14.00,2013-04-23 07:31:00,
2013-04-23 03:36:00,53.3,31.4,30.15,NNE,19,0.0,3.0,43,0.00,,SKC,0.00,VWS V14.00,2013-04-23 07:36:00,
2013-04-23 03:40:00,53.6,32.8,30.18,NNE,19,2.0,7.0,45,0.00,,SKC,0.00,VWS V14.00,2013-04-23 07:40:00,
2013-04-23 03:41:00,53.2,32.4,30.15,NNE,19,0.0,0.0,45,0.00,,SKC,0.00,VWS V14.00,2013-04-23 07:41:00,
2013-04-23 03:46:00,52.7,32.5,30.15,NNE,20,0.0,0.0,46,0.00,,SKC,0.00,VWS V14.00,2013-04-23 07:46:00,
2013-04-23 03:50:00,53.6,32.2,30.17,NNE,20,0.0,5.0,44,0.00,,SKC,0.00,VWS V14.00,2013-04-23 07:50:00,
2013-04-23 03:51:00,52.4,31.7,30.15,North,360,0.0,0.0,45,0.00,,SKC,0.00,VWS V14.00,2013-04-23 07:51:00,
2013-04-23 03:56:00,52.1,32.0,30.15,NNE,20,1.0,4.0,46,0.00,,SKC,0.00,VWS V14.00,2013-04-23 07:56:00,
2013-04-23 04:00:00,53.6,32.2,30.17,NNE,20,0.0,5.0,44,0.00,,SKC,0.00,VWS V14.00,2013-04-23 08:00:00,
2013-04-23 04:01:00,52.0,31.9,30.15,NNE,19,0.0,0.0,46,0.00,,SKC,0.00,VWS V14.00,2013-04-23 08:01:00,
2013-04-23 04:06:00,52.0,31.9,30.15,North,360,0.0,3.0,46,0.00,,SKC,0.00,VWS V14.00,2013-04-23 08:06:00,
2013-04-23 04:10:00,53.5,31.6,30.17,NNE,17,0.0,6.0,43,0.00,,SKC,0.00,VWS V14.00,2013-04-23 08:10:00,
2013-04-23 04:11:00,52.0,31.9,30.15,NNE,19,0.0,0.0,46,0.00,,SKC,0.00,VWS V14.00,2013-04-23 08:11:00,
2013-04-23 04:16:00,51.9,31.8,30.15,NNE,20,0.0,4.0,46,0.00,,SKC,0.00,VWS V14.00,2013-04-23 08:16:00,
2013-04-23 04:20:00,53.5,31.6,30.15,North,360,0.0,5.0,43,0.00,,SKC,0.00,VWS V14.00,2013-04-23 08:20:00,
2013-04-23 04:21:00,51.9,31.2,30.15,NNE,22,0.0,1.0,45,0.00,,SKC,0.00,VWS V14.00,2013-04-23 08:21:00,
2013-04-23 04:26:00,51.9,32.3,30.15,NNE,20,0.0,3.0,47,0.00,,SKC,0.00,VWS V14.00,2013-04-23 08:26:00,
2013-04-23 04:30:00,53.3,32.0,30.15,NNE,22,0.0,5.0,44,0.00,,SKC,0.00,VWS V14.00,2013-04-23 08:30:00,
2013-04-23 04:31:00,51.9,31.8,30.15,North,360,0.0,0.0,46,0.00,,SKC,0.00,VWS V14.00,2013-04-23 08:31:00,
2013-04-23 04:36:00,51.9,31.2,30.15,NNE,20,0.0,4.0,45,0.00,,SKC,0.00,VWS V14.00,2013-04-23 08:36:00,
2013-04-23 04:40:00,52.6,31.9,30.15,NNE,19,0.0,0.0,45,0.00,,SKC,0.00,VWS V14.00,2013-04-23 08:40:00,
2013-04-23 04:41:00,51.9,31.2,30.15,North,360,3.0,3.0,45,0.00,,SKC,0.00,VWS V14.00,2013-04-23 08:41:00,
2013-04-23 04:46:00,51.7,31.6,30.15,NNE,22,0.0,3.0,46,0.00,,SKC,0.00,VWS V14.00,2013-04-23 08:46:00,
2013-04-23 04:50:00,52.0,31.9,30.15,North,360,0.0,4.0,46,0.00,,SKC,0.00,VWS V14.00,2013-04-23 08:50:00,
2013-04-23 04:51:00,51.6,31.0,30.15,North,360,2.0,5.0,45,0.00,,SKC,0.00,VWS V14.00,2013-04-23 08:51:00,
2013-04-23 04:56:00,51.6,30.4,30.15,NNE,19,3.0,6.0,44,0.00,,SKC,0.00,VWS V14.00,2013-04-23 08:56:00,
2013-04-23 05:00:00,51.9,31.8,30.15,North,360,0.0,3.0,46,0.00,,SKC,0.00,VWS V14.00,2013-04-23 09:00:00,
2013-04-23 05:01:00,51.7,30.5,30.15,North,360,0.0,4.0,44,0.00,,SKC,0.00,VWS V14.00,2013-04-23 09:01:00,
2013-04-23 05:06:00,51.9,30.1,30.15,NNE,17,0.0,4.0,43,0.00,,SKC,0.00,VWS V14.00,2013-04-23 09:06:00,
2013-04-23 05:10:00,51.9,31.8,30.15,North,360,0.0,4.0,46,0.00,,SKC,0.00,VWS V14.00,2013-04-23 09:10:00,
2013-04-23 05:11:00,51.9,30.1,30.15,North,360,3.0,4.0,43,0.00,,SKC,0.00,VWS V14.00,2013-04-23 09:11:00,
2013-04-23 05:16:00,51.9,30.1,30.15,North,360,0.0,7.0,43,0.00,,SKC,0.00,VWS V14.00,2013-04-23 09:16:00,
2013-04-23 05:20:00,51.9,31.2,30.15,NNE,19,0.0,3.0,45,0.00,,SKC,0.00,VWS V14.00,2013-04-23 09:20:00,
2013-04-23 05:21:00,51.9,30.1,30.15,NNE,19,0.0,1.0,43,0.00,,SKC,0.00,VWS V14.00,2013-04-23 09:21:00,
2013-04-23 05:26:00,51.7,29.9,30.15,NNE,19,0.0,3.0,43,0.00,,SKC,0.00,VWS V14.00,2013-04-23 09:26:00,
2013-04-23 05:30:00,51.9,31.2,30.15,North,360,3.0,4.0,45,0.00,,SKC,0.00,VWS V14.00,2013-04-23 09:30:00,
2013-04-23 05:31:00,51.7,30.5,30.15,NNE,19,0.0,0.0,44,0.00,,SKC,0.00,VWS V14.00,2013-04-23 09:31:00,
2013-04-23 05:36:00,51.4,30.8,30.15,NNE,19,0.0,2.0,45,0.00,,SKC,0.00,VWS V14.00,2013-04-23 09:36:00,
2013-04-23 05:40:00,51.6,31.0,30.15,NNE,22,0.0,3.0,45,0.00,,SKC,0.00,VWS V14.00,2013-04-23 09:40:00,
2013-04-23 05:41:00,51.3,30.7,30.16,NNE,19,0.0,1.0,45,0.00,,SKC,0.00,VWS V14.00,2013-04-23 09:41:00,
2013-04-23 05:46:00,51.3,30.7,30.16,NNE,19,0.0,1.0,45,0.00,,SKC,0.00,VWS V14.00,2013-04-23 09:46:00,
2013-04-23 05:50:00,51.7,30.5,30.15,North,360,4.0,6.0,44,0.00,,SKC,0.00,VWS V14.00,2013-04-23 09:50:00,
2013-04-23 05:51:00,51.3,30.7,30.16,NNE,19,0.0,1.0,45,0.00,,SKC,0.00,VWS V14.00,2013-04-23 09:51:00,
2013-04-23 05:56:00,51.3,30.7,30.16,NNE,19,0.0,1.0,45,0.00,,SKC,0.00,VWS V14.00,2013-04-23 09:56:00,
2013-04-23 06:00:00,51.9,29.5,30.15,North,360,4.0,4.0,42,0.00,,SKC,0.00,VWS V14.00,2013-04-23 10:00:00,
2013-04-23 06:01:00,51.3,30.7,30.16,NNE,19,0.0,1.0,45,0.00,,SKC,0.00,VWS V14.00,2013-04-23 10:01:00,
2013-04-23 06:06:00,51.3,30.7,30.16,NNE,19,0.0,1.0,45,0.00,,SKC,0.00,VWS V14.00,2013-04-23 10:06:00,
2013-04-23 06:10:00,51.9,30.1,30.15,NNE,18,0.0,7.0,43,0.00,,SKC,0.00,VWS V14.00,2013-04-23 10:10:00,
2013-04-23 06:11:00,51.3,30.7,30.16,NNE,19,0.0,1.0,45,0.00,,SKC,0.00,VWS V14.00,2013-04-23 10:11:00,
2013-04-23 06:16:00,51.3,30.7,30.16,NNE,19,0.0,1.0,45,0.00,,SKC,0.00,VWS V14.00,2013-04-23 10:16:00,
2013-04-23 06:20:00,51.7,30.5,30.15,NNE,19,0.0,3.0,44,0.00,,SKC,0.00,VWS V14.00,2013-04-23 10:20:00,
2013-04-23 06:21:00,51.3,30.7,30.16,NNE,19,0.0,1.0,45,0.00,,SKC,0.00,VWS V14.00,2013-04-23 10:21:00,
2013-04-23 06:26:00,51.3,30.7,30.16,NNE,19,0.0,1.0,45,0.00,,SKC,0.00,VWS V14.00,2013-04-23 10:26:00,
2013-04-23 06:30:00,51.3,31.8,30.16,NNE,19,0.0,2.0,47,0.00,,SKC,0.00,VWS V14.00,2013-04-23 10:30:00,
2013-04-23 06:31:00,51.3,30.7,30.16,NNE,19,0.0,1.0,45,0.00,,SKC,0.00,VWS V14.00,2013-04-23 10:31:00,
2013-04-23 06:36:00,50.5,30.5,30.17,NNE,23,0.0,2.0,46,0.00,,SKC,0.00,VWS V14.00,2013-04-23 10:36:00,
2013-04-23 06:41:00,50.5,30.5,30.16,NNE,24,0.0,1.0,46,0.00,,SKC,0.00,VWS V14.00,2013-04-23 10:41:00,
2013-04-23 06:46:00,50.4,30.4,30.16,North,360,0.0,3.0,46,0.00,,SKC,0.00,VWS V14.00,2013-04-23 10:46:00,
2013-04-23 06:51:00,50.4,30.4,30.16,North,360,0.0,0.0,46,0.00,,SKC,0.00,VWS V14.00,2013-04-23 10:51:00,
2013-04-23 06:56:00,50.4,30.4,30.16,North,360,0.0,0.0,46,0.00,,SKC,0.00,VWS V14.00,2013-04-23 10:56:00,
2013-04-23 07:01:00,49.9,31.0,30.16,NNE,22,0.0,0.0,48,0.00,,SKC,0.00,VWS V14.00,2013-04-23 11:01:00,
2013-04-23 07:06:00,49.8,30.9,30.16,NNE,20,0.0,3.0,48,0.00,,SKC,0.00,VWS V14.00,2013-04-23 11:06:00,
2013-04-23 07:10:00,49.8,30.9,30.17,North,360,0.0,0.0,48,0.00,,SKC,0.00,VWS V14.00,2013-04-23 11:10:00,
2013-04-23 07:15:00,49.8,30.9,30.17,North,360,0.0,0.0,48,0.00,,SKC,0.00,VWS V14.00,2013-04-23 11:15:00,
2013-04-23 07:20:00,49.8,31.4,30.17,NNE,18,0.0,0.0,49,0.00,,SKC,0.00,VWS V14.00,2013-04-23 11:20:00,
2013-04-23 07:25:00,49.9,31.5,30.20,NNE,17,0.0,0.0,49,0.00,,SKC,0.00,VWS V14.00,2013-04-23 11:25:00,
2013-04-23 07:30:00,50.2,30.8,30.20,NNE,13,0.0,0.0,47,0.00,,SKC,0.00,VWS V14.00,2013-04-23 11:30:00,
2013-04-23 07:35:00,50.5,31.0,30.20,NNE,16,0.0,0.0,47,0.00,,SKC,0.00,VWS V14.00,2013-04-23 11:35:00,
2013-04-23 07:40:00,50.5,31.0,30.20,NNE,16,0.0,0.0,47,0.00,,SKC,0.00,VWS V14.00,2013-04-23 11:40:00,
2013-04-23 07:45:00,50.5,31.0,30.20,NNE,16,0.0,0.0,47,0.00,,SKC,0.00,VWS V14.00,2013-04-23 11:45:00,
2013-04-23 07:50:00,50.5,31.0,30.20,NNE,16,0.0,0.0,47,0.00,,SKC,0.00,VWS V14.00,2013-04-23 11:50:00,
2013-04-23 07:55:00,50.5,31.0,30.19,NNE,16,0.0,0.0,47,0.00,,SKC,0.00,VWS V14.00,2013-04-23 11:55:00,
2013-04-23 08:00:00,50.5,31.0,30.19,NNE,16,0.0,0.0,47,0.00,,SKC,0.00,VWS V14.00,2013-04-23 12:00:00,
2013-04-23 08:06:00,50.5,31.0,30.19,NNE,16,0.0,0.0,47,0.00,,SKC,0.00,VWS V14.00,2013-04-23 12:06:00,
2013-04-23 08:10:00,49.8,30.9,30.17,NNE,22,0.0,0.0,48,0.00,,SKC,0.00,VWS V14.00,2013-04-23 12:10:00,
2013-04-23 08:11:00,50.5,31.0,30.20,NNE,16,0.0,0.0,47,0.00,,SKC,0.00,VWS V14.00,2013-04-23 12:11:00,
2013-04-23 08:16:00,50.5,31.0,30.20,NNE,16,0.0,0.0,47,0.00,,SKC,0.00,VWS V14.00,2013-04-23 12:16:00,
2013-04-23 08:20:00,50.1,31.2,30.20,NNE,17,0.0,1.0,48,0.00,,SKC,0.00,VWS V14.00,2013-04-23 12:20:00,
2013-04-23 08:21:00,50.5,31.0,30.20,NNE,16,0.0,0.0,47,0.00,,SKC,0.00,VWS V14.00,2013-04-23 12:21:00,
2013-04-23 08:26:00,50.5,31.0,30.20,NNE,16,0.0,0.0,47,0.00,,SKC,0.00,VWS V14.00,2013-04-23 12:26:00,
2013-04-23 08:30:00,50.5,31.0,30.20,NNE,16,0.0,0.0,47,0.00,,SKC,0.00,VWS V14.00,2013-04-23 12:30:00,
2013-04-23 08:31:00,50.5,31.0,30.20,NNE,16,0.0,0.0,47,0.00,,SKC,0.00,VWS V14.00,2013-04-23 12:31:00,
2013-04-23 08:36:00,50.5,31.0,30.20,NNE,16,0.0,0.0,47,0.00,,SKC,0.00,VWS V14.00,2013-04-23 12:36:00,
2013-04-23 08:40:00,50.5,31.0,30.20,NNE,16,0.0,0.0,47,0.00,,SKC,0.00,VWS V14.00,2013-04-23 12:40:00,
2013-04-23 08:41:00,50.5,31.0,30.20,NNE,16,0.0,0.0,47,0.00,,SKC,0.00,VWS V14.00,2013-04-23 12:41:00,
2013-04-23 08:46:00,50.5,31.0,30.20,NNE,16,0.0,0.0,47,0.00,,SKC,0.00,VWS V14.00,2013-04-23 12:46:00,
2013-04-23 08:50:00,50.5,31.0,30.19,NNE,16,0.0,0.0,47,0.00,,SKC,0.00,VWS V14.00,2013-04-23 12:50:00,
2013-04-23 08:51:00,50.5,31.0,30.20,NNE,16,0.0,0.0,47,0.00,,SKC,0.00,VWS V14.00,2013-04-23 12:51:00,
2013-04-23 08:56:00,50.5,31.0,30.20,NNE,16,0.0,0.0,47,0.00,,SKC,0.00,VWS V14.00,2013-04-23 12:56:00,
2013-04-23 09:01:00,50.5,31.0,30.20,NNE,16,0.0,0.0,47,0.00,,SKC,0.00,VWS V14.00,2013-04-23 13:01:00,
2013-04-23 09:06:00,50.5,31.0,30.20,NNE,16,0.0,0.0,47,0.00,,SKC,0.00,VWS V14.00,2013-04-23 13:06:00,
2013-04-23 09:11:00,56.0,32.7,30.19,NNE,19,10.0,15.0,41,0.00,,SKC,0.00,VWS V14.00,2013-04-23 13:11:00,
2013-04-23 09:16:00,56.1,32.7,30.19,NNE,19,4.0,17.0,41,0.00,,SKC,0.00,VWS V14.00,2013-04-23 13:16:00,
2013-04-23 09:21:00,56.1,32.7,30.19,NNE,24,4.0,14.0,41,0.00,,SKC,0.00,VWS V14.00,2013-04-23 13:21:00,
2013-04-23 09:26:00,56.4,33.0,30.20,NNE,21,10.0,14.0,41,0.00,,SKC,0.00,VWS V14.00,2013-04-23 13:26:00,
2013-04-23 09:31:00,56.6,33.2,30.20,NNE,24,9.0,13.0,41,0.00,,SKC,0.00,VWS V14.00,2013-04-23 13:31:00,
2013-04-23 09:36:00,56.7,33.3,30.20,North,360,8.0,13.0,41,0.00,,SKC,0.00,VWS V14.00,2013-04-23 13:36:00,
2013-04-23 09:41:00,57.2,33.7,30.20,NNE,20,8.0,12.0,41,0.00,,SKC,0.00,VWS V14.00,2013-04-23 13:41:00,
2013-04-23 09:46:00,57.2,33.7,30.20,NNE,19,3.0,12.0,41,0.00,,SKC,0.00,VWS V14.00,2013-04-23 13:46:00,
2013-04-23 09:51:00,57.2,33.7,30.20,NNE,19,3.0,3.0,41,0.00,,SKC,0.00,VWS V14.00,2013-04-23 13:51:00,
2013-04-23 09:56:00,57.6,32.8,30.20,NNE,24,9.0,16.0,39,0.00,,SKC,0.00,VWS V14.00,2013-04-23 13:56:00,
2013-04-23 10:00:00,55.8,33.1,30.19,NNE,19,4.0,6.0,42,0.00,,SKC,0.00,VWS V14.00,2013-04-23 14:00:00,
2013-04-23 10:01:00,57.6,33.5,30.20,NNE,22,8.0,12.0,40,0.00,,SKC,0.00,VWS V14.00,2013-04-23 14:01:00,
2013-04-23 10:06:00,57.8,33.0,30.20,NNE,24,7.0,15.0,39,0.00,,SKC,0.00,VWS V14.00,2013-04-23 14:06:00,
2013-04-23 10:10:00,56.0,32.7,30.19,NNE,19,8.0,17.0,41,0.00,,SKC,0.00,VWS V14.00,2013-04-23 14:10:00,
2013-04-23 10:11:00,57.8,33.7,30.20,NNE,20,10.0,12.0,40,0.00,,SKC,0.00,VWS V14.00,2013-04-23 14:11:00,
2013-04-23 10:16:00,58.2,33.4,30.20,NNE,24,12.0,14.0,39,0.00,,SKC,0.00,VWS V14.00,2013-04-23 14:16:00,
2013-04-23 10:20:00,58.5,33.7,30.20,NNE,15,5.0,11.0,39,0.00,,SKC,0.00,VWS V14.00,2013-04-23 14:20:00,
2013-04-23 10:26:00,59.0,35.3,30.19,NNE,23,4.0,11.0,41,0.00,,SKC,0.00,VWS V14.00,2013-04-23 14:26:00,
2013-04-23 10:30:00,57.0,34.2,30.20,NNE,21,3.0,13.0,42,0.00,,SKC,0.00,VWS V14.00,2013-04-23 14:30:00,
2013-04-23 10:31:00,58.8,34.5,30.19,NNE,15,2.0,2.0,40,0.00,,SKC,0.00,VWS V14.00,2013-04-23 14:31:00,
2013-04-23 10:36:00,58.7,34.5,30.19,NNE,24,7.0,13.0,40,0.00,,SKC,0.00,VWS V14.00,2013-04-23 14:36:00,
2013-04-23 10:40:00,57.2,33.7,30.20,NNE,19,3.0,12.0,41,0.00,,SKC,0.00,VWS V14.00,2013-04-23 14:40:00,
2013-04-23 10:41:00,58.7,34.5,30.20,NNE,20,11.0,14.0,40,0.00,,SKC,0.00,VWS V14.00,2013-04-23 14:41:00,
2013-04-23 10:46:00,58.7,33.8,30.20,NNE,19,3.0,14.0,39,0.00,,SKC,0.00,VWS V14.00,2013-04-23 14:46:00,
2013-04-23 10:50:00,59.0,33.5,30.20,NNE,13,6.0,10.0,38,0.00,,SKC,0.00,VWS V14.00,2013-04-23 14:50:00,
2013-04-23 10:55:00,59.2,33.6,30.20,NNE,19,6.0,10.0,38,0.00,,SKC,0.00,VWS V14.00,2013-04-23 14:55:00,
2013-04-23 11:00:00,59.4,33.8,30.20,NNE,17,3.0,3.0,38,0.00,,SKC,0.00,VWS V14.00,2013-04-23 15:00:00,
2013-04-23 11:05:00,59.4,33.8,30.20,NNE,17,3.0,3.0,38,0.00,,SKC,0.00,VWS V14.00,2013-04-23 15:05:00,
2013-04-23 11:10:00,59.4,33.8,30.20,NNE,17,3.0,3.0,38,0.00,,SKC,0.00,VWS V14.00,2013-04-23 15:10:00,
2013-04-23 11:15:00,59.4,33.8,30.20,NNE,17,3.0,3.0,38,0.00,,SKC,0.00,VWS V14.00,2013-04-23 15:15:00,
2013-04-23 11:20:00,59.4,33.8,30.20,NNE,17,3.0,3.0,38,0.00,,SKC,0.00,VWS V14.00,2013-04-23 15:20:00,
2013-04-23 11:25:00,59.4,33.8,30.21,NNE,17,3.0,3.0,38,0.00,,SKC,0.00,VWS V14.00,2013-04-23 15:25:00,
2013-04-23 11:30:00,59.4,33.8,30.21,NNE,17,3.0,3.0,38,0.00,,SKC,0.00,VWS V14.00,2013-04-23 15:30:00,
2013-04-23 11:35:00,59.4,33.8,30.21,NNE,17,3.0,3.0,38,0.00,,SKC,0.00,VWS V14.00,2013-04-23 15:35:00,
2013-04-23 11:40:00,59.4,33.8,30.20,NNE,17,3.0,3.0,38,0.00,,SKC,0.00,VWS V14.00,2013-04-23 15:40:00,
2013-04-23 11:45:00,59.4,33.8,30.20,NNE,17,3.0,3.0,38,0.00,,SKC,0.00,VWS V14.00,2013-04-23 15:45:00,
2013-04-23 11:50:00,59.4,33.8,30.20,NNE,17,3.0,3.0,38,0.00,,SKC,0.00,VWS V14.00,2013-04-23 15:50:00,
2013-04-23 11:55:00,59.4,33.8,30.20,NNE,17,3.0,3.0,38,0.00,,SKC,0.00,VWS V14.00,2013-04-23 15:55:00,
2013-04-23 12:00:00,59.4,33.8,30.20,NNE,17,3.0,3.0,38,0.00,,SKC,0.00,VWS V14.00,2013-04-23 16:00:00,
2013-04-23 12:05:00,59.4,33.8,30.20,NNE,17,3.0,3.0,38,0.00,,SKC,0.00,VWS V14.00,2013-04-23 16:05:00,
2013-04-23 12:10:00,59.4,33.8,30.19,NNE,17,3.0,3.0,38,0.00,,SKC,0.00,VWS V14.00,2013-04-23 16:10:00,
2013-04-23 12:15:00,59.4,33.8,30.19,NNE,17,3.0,3.0,38,0.00,,SKC,0.00,VWS V14.00,2013-04-23 16:15:00,
2013-04-23 12:20:00,59.4,33.8,30.19,NNE,17,3.0,3.0,38,0.00,,SKC,0.00,VWS V14.00,2013-04-23 16:20:00,
2013-04-23 12:25:00,59.4,33.8,30.18,NNE,17,3.0,3.0,38,0.00,,SKC,0.00,VWS V14.00,2013-04-23 16:25:00,
2013-04-23 12:30:00,59.4,33.8,30.18,NNE,17,3.0,3.0,38,0.00,,SKC,0.00,VWS V14.00,2013-04-23 16:30:00,
2013-04-23 12:35:00,64.6,34.9,30.18,North,360,1.0,11.0,33,0.00,,SKC,0.00,VWS V14.00,2013-04-23 16:35:00,
2013-04-23 12:40:00,64.6,34.9,30.17,North,360,6.0,6.0,33,0.00,,SKC,0.00,VWS V14.00,2013-04-23 16:40:00,
2013-04-23 12:45:00,64.6,34.9,30.17,NNE,28,5.0,10.0,33,0.00,,SKC,0.00,VWS V14.00,2013-04-23 16:45:00,
2013-04-23 12:50:00,65.2,35.4,30.17,North,360,1.0,9.0,33,0.00,,SKC,0.00,VWS V14.00,2013-04-23 16:50:00,
2013-04-23 12:55:00,65.2,35.4,30.15,North,360,1.0,9.0,33,0.00,,SKC,0.00,VWS V14.00,2013-04-23 16:55:00,
2013-04-23 13:00:00,65.2,35.4,30.15,North,360,1.0,1.0,33,0.00,,SKC,0.00,VWS V14.00,2013-04-23 17:00:00,
2013-04-23 13:05:00,65.2,35.4,30.15,North,360,1.0,1.0,33,0.00,,SKC,0.00,VWS V14.00,2013-04-23 17:05:00,
2013-04-23 13:10:00,65.2,35.4,30.16,North,360,1.0,1.0,33,0.00,,SKC,0.00,VWS V14.00,2013-04-23 17:10:00,
2013-04-23 13:15:00,65.2,35.4,30.16,North,360,1.0,1.0,33,0.00,,SKC,0.00,VWS V14.00,2013-04-23 17:15:00,
2013-04-23 13:20:00,65.2,35.4,30.16,North,360,1.0,1.0,33,0.00,,SKC,0.00,VWS V14.00,2013-04-23 17:20:00,
2013-04-23 13:25:00,65.2,35.4,30.16,North,360,1.0,1.0,33,0.00,,SKC,0.00,VWS V14.00,2013-04-23 17:25:00,
2013-04-23 13:30:00,65.2,35.4,30.16,North,360,1.0,1.0,33,0.00,,SKC,0.00,VWS V14.00,2013-04-23 17:30:00,
2013-04-23 13:35:00,70.1,33.7,30.16,North,360,6.0,12.0,26,0.00,,SKC,0.00,VWS V14.00,2013-04-23 17:35:00,
2013-04-23 13:40:00,70.9,31.3,30.13,North,360,4.0,9.0,23,0.00,,SKC,0.00,VWS V14.00,2013-04-23 17:40:00,
2013-04-23 13:45:00,70.9,32.3,30.13,North,360,5.0,9.0,24,0.00,,SKC,0.00,VWS V14.00,2013-04-23 17:45:00,
2013-04-23 13:50:00,70.9,32.3,30.13,North,360,5.0,5.0,24,0.00,,SKC,0.00,VWS V14.00,2013-04-23 17:50:00,
2013-04-23 13:55:00,70.9,32.3,30.15,North,360,5.0,5.0,24,0.00,,SKC,0.00,VWS V14.00,2013-04-23 17:55:00,
2013-04-23 14:00:00,70.9,32.3,30.15,North,360,5.0,5.0,24,0.00,,SKC,0.00,VWS V14.00,2013-04-23 18:00:00,
2013-04-23 14:05:00,70.9,32.3,30.15,North,360,5.0,5.0,24,0.00,,SKC,0.00,VWS V14.00,2013-04-23 18:05:00,
2013-04-23 14:10:00,70.9,32.3,30.14,North,360,5.0,5.0,24,0.00,,SKC,0.00,VWS V14.00,2013-04-23 18:10:00,
2013-04-23 14:15:00,70.9,32.3,30.14,North,360,5.0,5.0,24,0.00,,SKC,0.00,VWS V14.00,2013-04-23 18:15:00,
2013-04-23 14:20:00,70.9,32.3,30.14,North,360,5.0,5.0,24,0.00,,SKC,0.00,VWS V14.00,2013-04-23 18:20:00,
2013-04-23 14:25:00,70.9,32.3,30.14,North,360,5.0,5.0,24,0.00,,SKC,0.00,VWS V14.00,2013-04-23 18:25:00,
2013-04-23 14:30:00,70.9,32.3,30.14,North,360,5.0,5.0,24,0.00,,SKC,0.00,VWS V14.00,2013-04-23 18:30:00,
2013-04-23 14:35:00,70.9,32.3,30.14,North,360,5.0,5.0,24,0.00,,SKC,0.00,VWS V14.00,2013-04-23 18:35:00,
2013-04-23 14:40:00,70.9,32.3,30.13,North,360,5.0,5.0,24,0.00,,SKC,0.00,VWS V14.00,2013-04-23 18:40:00,
2013-04-23 14:45:00,70.9,32.3,30.13,North,360,5.0,5.0,24,0.00,,SKC,0.00,VWS V14.00,2013-04-23 18:45:00,
2013-04-23 14:50:00,70.9,32.3,30.13,North,360,5.0,5.0,24,0.00,,SKC,0.00,VWS V14.00,2013-04-23 18:50:00,
2013-04-23 14:55:00,70.9,32.3,30.13,North,360,5.0,5.0,24,0.00,,SKC,0.00,VWS V14.00,2013-04-23 18:55:00,
2013-04-23 15:00:00,70.9,32.3,30.13,North,360,5.0,5.0,24,0.00,,SKC,0.00,VWS V14.00,2013-04-23 19:00:00,
2013-04-23 15:05:00,70.9,32.3,30.13,North,360,5.0,5.0,24,0.00,,SKC,0.00,VWS V14.00,2013-04-23 19:05:00,
2013-04-23 15:10:00,70.9,32.3,30.12,North,360,5.0,5.0,24,0.00,,SKC,0.00,VWS V14.00,2013-04-23 19:10:00,
2013-04-23 15:15:00,70.9,32.3,30.12,North,360,5.0,5.0,24,0.00,,SKC,0.00,VWS V14.00,2013-04-23 19:15:00,
2013-04-23 15:20:00,70.9,32.3,30.12,North,360,5.0,5.0,24,0.00,,SKC,0.00,VWS V14.00,2013-04-23 19:20:00,
2013-04-23 15:25:00,70.9,32.3,30.12,North,360,5.0,5.0,24,0.00,,SKC,0.00,VWS V14.00,2013-04-23 19:25:00,
2013-04-23 15:30:00,70.9,32.3,30.12,North,360,5.0,5.0,24,0.00,,SKC,0.00,VWS V14.00,2013-04-23 19:30:00,
2013-04-23 15:35:00,74.6,37.5,30.12,North,360,0.0,5.0,26,0.00,,SKC,0.00,VWS V14.00,2013-04-23 19:35:00,
2013-04-23 15:40:00,74.8,35.6,30.09,North,360,6.0,10.0,24,0.00,,SKC,0.00,VWS V14.00,2013-04-23 19:40:00,
2013-04-23 15:45:00,74.5,35.4,30.09,North,360,1.0,10.0,24,0.00,,SKC,0.00,VWS V14.00,2013-04-23 19:45:00,
2013-04-23 15:50:00,74.5,35.4,30.09,North,360,1.0,1.0,24,0.00,,SKC,0.00,VWS V14.00,2013-04-23 19:50:00,
2013-04-23 15:55:00,74.5,35.4,30.11,North,360,1.0,1.0,24,0.00,,SKC,0.00,VWS V14.00,2013-04-23 19:55:00,
2013-04-23 16:00:00,74.5,35.4,30.11,North,360,1.0,1.0,24,0.00,,SKC,0.00,VWS V14.00,2013-04-23 20:00:00,
2013-04-23 16:05:00,74.5,35.4,30.11,North,360,1.0,1.0,24,0.00,,SKC,0.00,VWS V14.00,2013-04-23 20:05:00,
2013-04-23 16:10:00,74.5,35.4,30.10,North,360,1.0,1.0,24,0.00,,SKC,0.00,VWS V14.00,2013-04-23 20:10:00,
2013-04-23 16:15:00,74.5,35.4,30.10,North,360,1.0,1.0,24,0.00,,SKC,0.00,VWS V14.00,2013-04-23 20:15:00,
2013-04-23 16:20:00,74.5,35.4,30.10,North,360,1.0,1.0,24,0.00,,SKC,0.00,VWS V14.00,2013-04-23 20:20:00,
2013-04-23 16:25:00,76.0,36.6,30.10,North,360,1.0,7.0,24,0.00,,SKC,0.00,VWS V14.00,2013-04-23 20:25:00,
2013-04-23 16:30:00,75.8,35.4,30.10,North,360,0.0,0.0,23,0.00,,SKC,0.00,VWS V14.00,2013-04-23 20:30:00,
2013-04-23 16:35:00,75.8,35.4,30.10,North,360,0.0,0.0,23,0.00,,SKC,0.00,VWS V14.00,2013-04-23 20:35:00,
2013-04-23 16:40:00,75.8,35.4,30.09,North,360,0.0,0.0,23,0.00,,SKC,0.00,VWS V14.00,2013-04-23 20:40:00,
2013-04-23 16:45:00,75.8,35.4,30.09,North,360,0.0,0.0,23,0.00,,SKC,0.00,VWS V14.00,2013-04-23 20:45:00,
2013-04-23 16:50:00,75.8,35.4,30.09,North,360,0.0,0.0,23,0.00,,SKC,0.00,VWS V14.00,2013-04-23 20:50:00,
2013-04-23 16:55:00,75.8,35.4,30.09,North,360,0.0,0.0,23,0.00,,SKC,0.00,VWS V14.00,2013-04-23 20:55:00,
2013-04-23 17:00:00,75.8,35.4,30.09,North,360,0.0,0.0,23,0.00,,SKC,0.00,VWS V14.00,2013-04-23 21:00:00,
2013-04-23 17:05:00,75.8,35.4,30.09,North,360,0.0,0.0,23,0.00,,SKC,0.00,VWS V14.00,2013-04-23 21:05:00,
2013-04-23 17:10:00,75.8,35.4,30.08,North,360,0.0,0.0,23,0.00,,SKC,0.00,VWS V14.00,2013-04-23 21:10:00,
2013-04-23 17:15:00,75.8,35.4,30.08,North,360,0.0,0.0,23,0.00,,SKC,0.00,VWS V14.00,2013-04-23 21:15:00,
2013-04-23 17:20:00,75.8,35.4,30.08,North,360,0.0,0.0,23,0.00,,SKC,0.00,VWS V14.00,2013-04-23 21:20:00,
2013-04-23 17:25:00,75.8,35.4,30.08,North,360,0.0,0.0,23,0.00,,SKC,0.00,VWS V14.00,2013-04-23 21:25:00,
2013-04-23 17:30:00,75.8,35.4,30.08,North,360,0.0,0.0,23,0.00,,SKC,0.00,VWS V14.00,2013-04-23 21:30:00,
2013-04-23 17:35:00,75.8,35.4,30.08,North,360,0.0,0.0,23,0.00,,SKC,0.00,VWS V14.00,2013-04-23 21:35:00,
2013-04-23 17:40:00,75.8,35.4,30.07,North,360,0.0,0.0,23,0.00,,SKC,0.00,VWS V14.00,2013-04-23 21:40:00,
2013-04-23 17:45:00,75.8,35.4,30.07,North,360,0.0,0.0,23,0.00,,SKC,0.00,VWS V14.00,2013-04-23 21:45:00,
2013-04-23 17:50:00,75.8,35.4,30.07,North,360,0.0,0.0,23,0.00,,SKC,0.00,VWS V14.00,2013-04-23 21:50:00,
2013-04-23 17:55:00,75.8,35.4,30.07,North,360,0.0,0.0,23,0.00,,SKC,0.00,VWS V14.00,2013-04-23 21:55:00,
2013-04-23 18:00:00,75.8,35.4,30.07,North,360,0.0,0.0,23,0.00,,SKC,0.00,VWS V14.00,2013-04-23 22:00:00,
2013-04-23 18:05:00,75.8,35.4,30.07,North,360,0.0,0.0,23,0.00,,SKC,0.00,VWS V14.00,2013-04-23 22:05:00,
2013-04-23 18:10:00,75.8,35.4,30.07,North,360,0.0,0.0,23,0.00,,SKC,0.00,VWS V14.00,2013-04-23 22:10:00,
2013-04-23 18:15:00,75.8,35.4,30.07,North,360,0.0,0.0,23,0.00,,SKC,0.00,VWS V14.00,2013-04-23 22:15:00,
2013-04-23 18:20:00,75.8,35.4,30.07,North,360,0.0,0.0,23,0.00,,SKC,0.00,VWS V14.00,2013-04-23 22:20:00,
2013-04-23 18:25:00,75.8,35.4,30.07,North,360,0.0,0.0,23,0.00,,SKC,0.00,VWS V14.00,2013-04-23 22:25:00,
2013-04-23 18:30:00,75.8,35.4,30.07,North,360,0.0,0.0,23,0.00,,SKC,0.00,VWS V14.00,2013-04-23 22:30:00,
2013-04-23 18:35:00,75.8,35.4,30.07,North,360,0.0,0.0,23,0.00,,SKC,0.00,VWS V14.00,2013-04-23 22:35:00,
2013-04-23 18:40:00,75.8,35.4,30.07,North,360,0.0,0.0,23,0.00,,SKC,0.00,VWS V14.00,2013-04-23 22:40:00,
2013-04-23 18:45:00,75.8,35.4,30.07,North,360,0.0,0.0,23,0.00,,SKC,0.00,VWS V14.00,2013-04-23 22:45:00,
2013-04-23 18:50:00,75.8,35.4,30.07,North,360,0.0,0.0,23,0.00,,SKC,0.00,VWS V14.00,2013-04-23 22:50:00,
2013-04-23 18:55:00,75.8,35.4,30.07,North,360,0.0,0.0,23,0.00,,SKC,0.00,VWS V14.00,2013-04-23 22:55:00,
2013-04-23 19:00:00,75.8,35.4,30.07,North,360,0.0,0.0,23,0.00,,SKC,0.00,VWS V14.00,2013-04-23 23:00:00,
2013-04-23 19:05:00,75.8,35.4,30.07,North,360,0.0,0.0,23,0.00,,SKC,0.00,VWS V14.00,2013-04-23 23:05:00,
2013-04-23 19:10:00,72.3,39.2,30.04,North,360,3.0,5.0,30,0.00,,SKC,0.00,VWS V14.00,2013-04-23 23:10:00,
2013-04-23 19:15:00,72.3,39.2,30.04,North,360,3.0,7.0,30,0.00,,SKC,0.00,VWS V14.00,2013-04-23 23:15:00,
2013-04-23 19:20:00,72.1,39.0,30.04,North,360,3.0,5.0,30,0.00,,SKC,0.00,VWS V14.00,2013-04-23 23:20:00,
2013-04-23 19:25:00,72.1,39.8,30.01,North,360,5.0,5.0,31,0.00,,SKC,0.00,VWS V14.00,2013-04-23 23:25:00,
2013-04-23 19:30:00,71.9,39.7,30.01,North,360,4.0,4.0,31,0.00,,SKC,0.00,VWS V14.00,2013-04-23 23:30:00,
2013-04-23 19:35:00,71.8,39.6,30.01,North,360,0.0,4.0,31,0.00,,SKC,0.00,VWS V14.00,2013-04-23 23:35:00,
2013-04-23 19:40:00,71.8,40.4,30.01,North,360,1.0,1.0,32,0.00,,SKC,0.00,VWS V14.00,2013-04-23 23:40:00,
2013-04-23 19:45:00,71.8,40.4,30.01,North,360,1.0,1.0,32,0.00,,SKC,0.00,VWS V14.00,2013-04-23 23:45:00,
2013-04-23 19:50:00,71.1,40.6,30.01,North,360,1.0,2.0,33,0.00,,SKC,0.00,VWS V14.00,2013-04-23 23:50:00,
2013-04-23 19:55:00,70.9,41.2,30.01,North,360,0.0,5.0,34,0.00,,SKC,0.00,VWS V14.00,2013-04-23 23:55:00,
2013-04-23 20:00:00,70.8,41.1,30.01,North,360,0.0,0.0,34,0.00,,SKC,0.00,VWS V14.00,2013-04-24 00:00:00,
2013-04-23 20:05:00,70.3,41.4,30.01,North,360,3.0,3.0,35,0.00,,SKC,0.00,VWS V14.00,2013-04-24 00:05:00,
2013-04-23 20:10:00,69.9,41.8,30.02,North,360,0.0,0.0,36,0.00,,SKC,0.00,VWS V14.00,2013-04-24 00:10:00,
2013-04-23 20:15:00,69.6,41.5,30.02,North,360,0.0,0.0,36,0.00,,SKC,0.00,VWS V14.00,2013-04-24 00:15:00,
2013-04-23 20:20:00,69.4,42.7,30.02,North,360,0.0,0.0,38,0.00,,SKC,0.00,VWS V14.00,2013-04-24 00:20:00,
2013-04-23 20:25:00,69.1,42.5,30.04,North,360,0.0,0.0,38,0.00,,SKC,0.00,VWS V14.00,2013-04-24 00:25:00,
2013-04-23 20:30:00,68.6,42.0,30.04,North,360,0.0,0.0,38,0.00,,SKC,0.00,VWS V14.00,2013-04-24 00:30:00,
2013-04-23 20:35:00,68.3,43.1,30.04,North,360,0.0,0.0,40,0.00,,SKC,0.00,VWS V14.00,2013-04-24 00:35:00,
2013-04-23 20:40:00,68.0,43.5,30.05,North,360,0.0,0.0,41,0.00,,SKC,0.00,VWS V14.00,2013-04-24 00:40:00,
2013-04-23 20:45:00,68.0,43.5,30.05,North,360,0.0,0.0,41,0.00,,SKC,0.00,VWS V14.00,2013-04-24 00:45:00,
2013-04-23 20:50:00,68.0,43.5,30.05,North,360,0.0,0.0,41,0.00,,SKC,0.00,VWS V14.00,2013-04-24 00:50:00,
2013-04-23 20:55:00,67.0,44.4,30.05,North,360,0.0,0.0,44,0.00,,SKC,0.00,VWS V14.00,2013-04-24 00:55:00,
2013-04-23 21:00:00,66.8,44.8,30.05,North,360,0.0,0.0,45,0.00,,SKC,0.00,VWS V14.00,2013-04-24 01:00:00,
2013-04-23 21:05:00,66.8,44.8,30.05,North,360,0.0,0.0,45,0.00,,SKC,0.00,VWS V14.00,2013-04-24 01:05:00,
2013-04-23 21:09:00,66.0,44.7,30.06,NNE,28,0.0,0.0,46,0.00,,SKC,0.00,VWS V14.00,2013-04-24 01:09:00,
2013-04-23 21:10:00,69.4,42.0,30.02,North,360,0.0,0.0,37,0.00,,SKC,0.00,VWS V14.00,2013-04-24 01:10:00,
2013-04-23 21:14:00,65.9,45.1,30.06,North,360,0.0,0.0,47,0.00,,SKC,0.00,VWS V14.00,2013-04-24 01:14:00,
2013-04-23 21:19:00,65.4,45.2,30.06,North,360,0.0,0.0,48,0.00,,SKC,0.00,VWS V14.00,2013-04-24 01:19:00,
2013-04-23 21:20:00,68.8,42.2,30.04,North,360,0.0,0.0,38,0.00,,SKC,0.00,VWS V14.00,2013-04-24 01:20:00,
2013-04-23 21:24:00,65.1,44.9,30.07,North,360,0.0,0.0,48,0.00,,SKC,0.00,VWS V14.00,2013-04-24 01:24:00,
2013-04-23 21:29:00,64.8,45.2,30.07,North,360,0.0,0.0,49,0.00,,SKC,0.00,VWS V14.00,2013-04-24 01:29:00,
2013-04-23 21:30:00,68.1,43.5,30.05,North,360,0.0,0.0,41,0.00,,SKC,0.00,VWS V14.00,2013-04-24 01:30:00,
2013-04-23 21:34:00,64.6,45.6,30.07,North,360,0.0,0.0,50,0.00,,SKC,0.00,VWS V14.00,2013-04-24 01:34:00,
2013-04-23 21:39:00,64.3,45.3,30.07,North,360,0.0,0.0,50,0.00,,SKC,0.00,VWS V14.00,2013-04-24 01:39:00,
2013-04-23 21:40:00,68.0,43.5,30.05,North,360,0.0,0.0,41,0.00,,SKC,0.00,VWS V14.00,2013-04-24 01:40:00,
2013-04-23 21:44:00,64.1,45.1,30.07,NNE,28,0.0,0.0,50,0.00,,SKC,0.00,VWS V14.00,2013-04-24 01:44:00,
2013-04-23 21:49:00,64.1,45.1,30.07,NNE,28,0.0,0.0,50,0.00,,SKC,0.00,VWS V14.00,2013-04-24 01:49:00,
2013-04-23 21:50:00,66.8,44.8,30.05,North,360,0.0,0.0,45,0.00,,SKC,0.00,VWS V14.00,2013-04-24 01:50:00,
2013-04-23 21:54:00,64.1,45.1,30.07,NNE,28,0.0,0.0,50,0.00,,SKC,0.00,VWS V14.00,2013-04-24 01:54:00,
2013-04-23 21:59:00,64.1,45.1,30.07,NNE,28,0.0,0.0,50,0.00,,SKC,0.00,VWS V14.00,2013-04-24 01:59:00,
2013-04-23 22:00:00,66.0,44.7,30.06,North,360,0.0,0.0,46,0.00,,SKC,0.00,VWS V14.00,2013-04-24 02:00:00,
2013-04-23 22:04:00,64.1,45.1,30.07,NNE,28,0.0,0.0,50,0.00,,SKC,0.00,VWS V14.00,2013-04-24 02:04:00,
2013-04-23 22:09:00,64.1,45.1,30.07,NNE,28,0.0,0.0,50,0.00,,SKC,0.00,VWS V14.00,2013-04-24 02:09:00,
2013-04-23 22:10:00,65.4,45.2,30.06,North,360,0.0,0.0,48,0.00,,SKC,0.00,VWS V14.00,2013-04-24 02:10:00,
2013-04-23 22:15:00,64.1,45.1,30.07,NNE,28,0.0,0.0,50,0.00,,SKC,0.00,VWS V14.00,2013-04-24 02:15:00,
2013-04-23 22:20:00,64.1,45.1,30.07,NNE,28,0.0,0.0,50,0.00,,SKC,0.00,VWS V14.00,2013-04-24 02:20:00,
2013-04-23 22:25:00,64.1,45.1,30.07,NNE,28,0.0,0.0,50,0.00,,SKC,0.00,VWS V14.00,2013-04-24 02:25:00,
2013-04-23 22:30:00,64.1,45.1,30.07,NNE,28,0.0,0.0,50,0.00,,SKC,0.00,VWS V14.00,2013-04-24 02:30:00,
2013-04-23 22:35:00,62.1,46.2,30.08,North,360,0.0,0.0,56,0.00,,SKC,0.00,VWS V14.00,2013-04-24 02:35:00,
2013-04-23 22:40:00,62.0,46.1,30.08,NNE,29,0.0,0.0,56,0.00,,SKC,0.00,VWS V14.00,2013-04-24 02:40:00,
2013-04-23 22:46:00,62.0,46.1,30.08,North,360,0.0,0.0,56,0.00,,SKC,0.00,VWS V14.00,2013-04-24 02:46:00,
2013-04-23 22:51:00,62.0,46.1,30.08,North,360,0.0,0.0,56,0.00,,SKC,0.00,VWS V14.00,2013-04-24 02:51:00,
2013-04-23 22:56:00,61.7,46.3,30.07,North,360,0.0,0.0,57,0.00,,SKC,0.00,VWS V14.00,2013-04-24 02:56:00,
2013-04-23 23:01:00,61.5,46.1,30.07,North,360,0.0,0.0,57,0.00,,SKC,0.00,VWS V14.00,2013-04-24 03:01:00,
2013-04-23 23:06:00,61.4,46.0,30.07,North,360,0.0,0.0,57,0.00,,SKC,0.00,VWS V14.00,2013-04-24 03:06:00,
2013-04-23 23:11:00,61.4,46.0,30.08,NNE,28,0.0,0.0,57,0.00,,SKC,0.00,VWS V14.00,2013-04-24 03:11:00,
2013-04-23 23:16:00,61.1,45.8,30.08,North,360,0.0,0.0,57,0.00,,SKC,0.00,VWS V14.00,2013-04-24 03:16:00,
2013-04-23 23:21:00,60.9,46.0,30.08,North,360,0.0,0.0,58,0.00,,SKC,0.00,VWS V14.00,2013-04-24 03:21:00,
2013-04-23 23:26:00,60.8,46.4,30.08,NNE,26,0.0,0.0,59,0.00,,SKC,0.00,VWS V14.00,2013-04-24 03:26:00,
2013-04-23 23:30:00,62.0,46.1,30.08,North,360,0.0,0.0,56,0.00,,SKC,0.00,VWS V14.00,2013-04-24 03:30:00,
2013-04-23 23:32:00,60.5,46.6,30.08,North,360,0.0,0.0,60,0.00,,SKC,0.00,VWS V14.00,2013-04-24 03:32:00,
2013-04-23 23:37:00,60.1,46.6,30.08,North,360,0.0,0.0,61,0.00,,SKC,0.00,VWS V14.00,2013-04-24 03:37:00,
2013-04-23 23:40:00,62.0,46.1,30.08,North,360,0.0,0.0,56,0.00,,SKC,0.00,VWS V14.00,2013-04-24 03:40:00,
2013-04-23 23:42:00,59.8,46.8,30.08,NNE,26,0.0,0.0,62,0.00,,SKC,0.00,VWS V14.00,2013-04-24 03:42:00,
2013-04-23 23:47:00,59.5,46.9,30.08,NNE,26,0.0,0.0,63,0.00,,SKC,0.00,VWS V14.00,2013-04-24 03:47:00,
2013-04-23 23:50:00,61.7,46.3,30.07,North,360,0.0,0.0,57,0.00,,SKC,0.00,VWS V14.00,2013-04-24 03:50:00,
2013-04-23 23:52:00,59.2,46.6,30.08,North,360,0.0,0.0,63,0.00,,SKC,0.00,VWS V14.00,2013-04-24 03:52:00,
2013-04-23 23:57:00,59.0,46.8,30.08,NNE,27,0.0,0.0,64,0.00,,SKC,0.00,VWS V14.00,2013-04-24 03:57:00,